createdAt,value
2022-11-05T00:01:12.826Z,95506.56
2022-11-05T00:03:57.937Z,95499.91
2022-11-05T00:06:43.349Z,95501.91
2022-11-05T00:09:30.043Z,95516.75
2022-11-05T00:12:17.799Z,95512.00
2022-11-05T00:15:03.021Z,95498.28
2022-11-05T00:17:29.599Z,95494.63
2022-11-05T00:19:56.299Z,95495.34
2022-11-05T00:22:41.586Z,95497.00
2022-11-05T00:25:14.390Z,95491.72
2022-11-05T00:27:41.243Z,95491.41
2022-11-05T00:30:09.399Z,95485.16
2022-11-05T00:32:36.063Z,95496.00
2022-11-05T00:35:02.755Z,95499.31
2022-11-05T00:37:30.162Z,95492.22
2022-11-05T00:39:56.825Z,95511.84
2022-11-05T00:42:42.233Z,95510.41
2022-11-05T00:45:09.315Z,95519.16
2022-11-05T00:47:54.719Z,95523.63
2022-11-05T00:50:22.265Z,95531.53
2022-11-05T00:52:55.972Z,95533.19
2022-11-05T00:55:24.845Z,95532.50
2022-11-05T00:57:52.073Z,95529.06
2022-11-05T01:00:19.179Z,95531.81
2022-11-05T01:02:46.482Z,95527.78
2022-11-05T01:05:14.154Z,95530.41
2022-11-05T01:07:41.068Z,95522.50
2022-11-05T01:10:08.241Z,95523.31
2022-11-05T01:12:35.027Z,95535.16
2022-11-05T01:15:02.144Z,95538.19
2022-11-05T01:17:28.944Z,95537.16
2022-11-05T01:19:55.644Z,95540.34
2022-11-05T01:22:22.348Z,95538.41
2022-11-05T01:24:48.985Z,95536.88
2022-11-05T01:27:15.633Z,95536.03
2022-11-05T01:29:42.505Z,95527.59
2022-11-05T01:32:09.145Z,95530.91
2022-11-05T01:34:35.825Z,95537.41
2022-11-05T01:37:02.500Z,95545.22
2022-11-05T01:39:29.200Z,95541.44
2022-11-05T01:41:55.908Z,95538.13
2022-11-05T01:44:50.389Z,95548.69
2022-11-05T01:47:23.198Z,95538.97
2022-11-05T01:49:49.923Z,95536.16
2022-11-05T01:52:16.690Z,95537.50
2022-11-05T01:54:43.944Z,95530.97
2022-11-05T01:57:11.709Z,95530.97
2022-11-05T01:59:43.438Z,95529.31
2022-11-05T02:02:10.751Z,95520.41
2022-11-05T02:04:46.707Z,95522.06
2022-11-05T02:07:14.105Z,95513.19
2022-11-05T02:09:58.508Z,95513.81
2022-11-05T02:12:25.398Z,95514.16
2022-11-05T02:14:53.315Z,95513.66
2022-11-05T02:17:26.899Z,95524.41
2022-11-05T02:20:11.917Z,95515.50
2022-11-05T02:22:53.831Z,95515.50
2022-11-05T02:25:39.299Z,95516.63
2022-11-05T02:28:05.920Z,95520.09
2022-11-05T02:30:44.261Z,95508.38
2022-11-05T02:33:41.648Z,95511.34
2022-11-05T02:36:30.064Z,95512.03
2022-11-05T02:39:18.499Z,95522.41
2022-11-05T02:42:11.900Z,95513.19
2022-11-05T02:45:00.385Z,95512.03
2022-11-05T02:47:38.067Z,95515.00
2022-11-05T02:50:15.479Z,95518.66
2022-11-05T02:52:45.153Z,95512.75
2022-11-05T02:55:30.468Z,95522.28
2022-11-05T02:57:59.829Z,95512.75
2022-11-05T03:00:46.360Z,95521.16
2022-11-05T03:03:51.340Z,95523.31
2022-11-05T03:06:36.672Z,95523.47
2022-11-05T03:09:18.604Z,95521.00
2022-11-05T03:12:22.906Z,95522.00
2022-11-05T03:15:01.783Z,95524.81
2022-11-05T03:17:34.509Z,95517.78
2022-11-05T03:20:13.079Z,95512.81
2022-11-05T03:22:47.564Z,95521.75
2022-11-05T03:25:19.748Z,95518.28
2022-11-05T03:27:50.647Z,95520.47
2022-11-05T03:30:19.097Z,95525.41
2022-11-05T03:32:59.358Z,95513.09
2022-11-05T03:35:30.853Z,95517.56
2022-11-05T03:38:04.082Z,95523.63
2022-11-05T03:40:35.759Z,95514.66
2022-11-05T03:43:06.826Z,95529.88
2022-11-05T03:45:48.630Z,95515.03
2022-11-05T03:48:16.988Z,95520.00
2022-11-05T03:50:54.078Z,95522.78
2022-11-05T03:53:30.544Z,95530.88
2022-11-05T03:56:03.586Z,95537.97
2022-11-05T03:58:31.844Z,95549.34
2022-11-05T04:01:02.339Z,95555.47
2022-11-05T04:03:36.246Z,95548.16
2022-11-05T04:06:23.678Z,95548.16
2022-11-05T04:09:08.839Z,95548.78
2022-11-05T04:11:53.919Z,95554.22
2022-11-05T04:14:20.820Z,95538.72
2022-11-05T04:17:06.113Z,95548.28
2022-11-05T04:19:56.027Z,95557.19
2022-11-05T04:22:42.959Z,95570.06
2022-11-05T04:25:09.963Z,95577.00
2022-11-05T04:27:37.115Z,95574.69
2022-11-05T04:30:19.901Z,95573.69
2022-11-05T04:32:56.658Z,95572.91
2022-11-05T04:35:23.504Z,95580.47
2022-11-05T04:37:50.159Z,95581.47
2022-11-05T04:40:16.758Z,95585.91
2022-11-05T04:42:43.405Z,95578.69
2022-11-05T04:45:10.227Z,95591.22
2022-11-05T04:47:36.893Z,95590.06
2022-11-05T04:50:03.695Z,95601.19
2022-11-05T04:52:30.327Z,95615.97
2022-11-05T04:54:56.943Z,95626.06
2022-11-05T04:57:23.559Z,95619.94
2022-11-05T04:59:50.189Z,95634.28
2022-11-05T05:02:16.895Z,95625.59
2022-11-05T05:04:43.550Z,95635.56
2022-11-05T05:07:10.171Z,95633.03
2022-11-05T05:09:36.776Z,95628.44
2022-11-05T05:12:03.624Z,95636.88
2022-11-05T05:14:30.224Z,95638.53
2022-11-05T05:16:56.883Z,95645.22
2022-11-05T05:19:26.509Z,95638.44
2022-11-05T05:21:53.112Z,95643.97
2022-11-05T05:24:21.289Z,95645.22
2022-11-05T05:26:49.986Z,95648.47
2022-11-05T05:29:18.159Z,95631.91
2022-11-05T05:31:44.993Z,95633.41
2022-11-05T05:34:13.789Z,95639.50
2022-11-05T05:36:40.794Z,95633.38
2022-11-05T05:39:13.065Z,95647.00
2022-11-05T05:41:39.752Z,95645.69
2022-11-05T05:44:06.784Z,95642.22
2022-11-05T05:46:33.649Z,95657.09
2022-11-05T05:49:00.351Z,95676.97
2022-11-05T05:51:26.969Z,95685.25
2022-11-05T05:53:54.871Z,95675.16
2022-11-05T05:56:21.702Z,95680.72
2022-11-05T05:58:48.379Z,95691.47
2022-11-05T06:01:19.275Z,95686.53
2022-11-05T06:03:49.505Z,95686.03
2022-11-05T06:06:21.225Z,95691.47
2022-11-05T06:08:48.694Z,95680.09
2022-11-05T06:11:15.883Z,95680.91
2022-11-05T06:13:42.563Z,95671.31
2022-11-05T06:16:10.479Z,95688.44
2022-11-05T06:18:37.549Z,95680.97
2022-11-05T06:21:12.787Z,95689.44
2022-11-05T06:23:42.722Z,95686.28
2022-11-05T06:26:15.753Z,95694.41
2022-11-05T06:28:43.262Z,95704.34
2022-11-05T06:31:11.149Z,95693.44
2022-11-05T06:33:38.162Z,95693.44
2022-11-05T06:36:07.425Z,95695.28
2022-11-05T06:38:36.754Z,95703.41
2022-11-05T06:41:09.820Z,95705.88
2022-11-05T06:43:37.687Z,95714.34
2022-11-05T06:46:04.627Z,95715.16
2022-11-05T06:48:31.301Z,95715.50
2022-11-05T06:50:58.323Z,95716.84
2022-11-05T06:53:25.370Z,95716.50
2022-11-05T06:55:52.326Z,95719.31
2022-11-05T06:58:19.147Z,95733.56
2022-11-05T07:00:46.236Z,95732.75
2022-11-05T07:03:13.569Z,95743.88
2022-11-05T07:05:44.316Z,95743.53
2022-11-05T07:08:10.963Z,95758.31
2022-11-05T07:10:37.584Z,95760.63
2022-11-05T07:13:08.144Z,95755.16
2022-11-05T07:15:36.656Z,95756.31
2022-11-05T07:18:04.181Z,95765.09
2022-11-05T07:20:33.857Z,95750.81
2022-11-05T07:23:06.005Z,95749.47
2022-11-05T07:25:33.558Z,95751.09
2022-11-05T07:28:00.571Z,95753.56
2022-11-05T07:30:27.578Z,95745.41
2022-11-05T07:32:54.291Z,95736.72
2022-11-05T07:35:21.205Z,95736.03
2022-11-05T07:37:49.864Z,95744.97
2022-11-05T07:40:19.303Z,95741.66
2022-11-05T07:42:48.252Z,95743.41
2022-11-05T07:45:15.620Z,95741.06
2022-11-05T07:47:49.886Z,95745.56
2022-11-05T07:50:18.036Z,95736.19
2022-11-05T07:52:44.917Z,95745.47
2022-11-05T07:55:13.415Z,95750.41
2022-11-05T07:57:44.892Z,95752.63
2022-11-05T08:00:16.828Z,95754.25
2022-11-05T08:02:43.772Z,95752.56
2022-11-05T08:05:10.729Z,95761.31
2022-11-05T08:07:37.348Z,95750.97
2022-11-05T08:10:04.531Z,95755.63
2022-11-05T08:12:32.026Z,95740.22
2022-11-05T08:14:58.829Z,95750.56
2022-11-05T08:17:25.839Z,95752.53
2022-11-05T08:19:52.456Z,95750.53
2022-11-05T08:22:19.170Z,95753.47
2022-11-05T08:24:45.832Z,95745.47
2022-11-05T08:27:12.535Z,95751.84
2022-11-05T08:29:39.266Z,95742.81
2022-11-05T08:32:05.896Z,95745.78
2022-11-05T08:34:32.538Z,95751.75
2022-11-05T08:37:01.316Z,95759.19
2022-11-05T08:39:28.382Z,95760.13
2022-11-05T08:41:55.082Z,95759.88
2022-11-05T08:44:21.861Z,95751.34
2022-11-05T08:46:48.704Z,95767.66
2022-11-05T08:49:15.311Z,95762.34
2022-11-05T08:51:44.054Z,95759.13
2022-11-05T08:54:10.732Z,95759.97
2022-11-05T08:56:37.478Z,95759.63
2022-11-05T08:59:04.636Z,95773.94
2022-11-05T09:01:32.953Z,95766.59
2022-11-05T09:03:59.828Z,95762.09
2022-11-05T09:06:26.441Z,95767.91
2022-11-05T09:08:53.110Z,95773.56
2022-11-05T09:11:19.724Z,95766.72
2022-11-05T09:13:46.459Z,95764.88
2022-11-05T09:16:25.070Z,95768.56
2022-11-05T09:18:52.296Z,95763.31
2022-11-05T09:21:19.523Z,95771.50
2022-11-05T09:23:46.933Z,95769.75
2022-11-05T09:26:14.387Z,95768.88
2022-11-05T09:28:41.255Z,95776.84
2022-11-05T09:31:10.054Z,95780.19
2022-11-05T09:33:39.485Z,95789.66
2022-11-05T09:36:06.730Z,95796.28
2022-11-05T09:38:34.962Z,95793.88
2022-11-05T09:41:05.914Z,95800.38
2022-11-05T09:43:43.496Z,95811.72
2022-11-05T09:46:38.363Z,95784.06
2022-11-05T09:49:12.426Z,95792.50
2022-11-05T09:51:40.983Z,95793.97
2022-11-05T09:54:07.819Z,95789.13
2022-11-05T09:56:37.361Z,95790.59
2022-11-05T09:59:18.969Z,95800.69
2022-11-05T10:01:46.745Z,95791.88
2022-11-05T10:04:18.097Z,95805.03
2022-11-05T10:06:59.505Z,95800.00
2022-11-05T10:09:45.379Z,95798.97
2022-11-05T10:12:18.992Z,95805.31
2022-11-05T10:15:11.385Z,95803.22
2022-11-05T10:17:42.317Z,95801.00
2022-11-05T10:20:31.511Z,95800.56
2022-11-05T10:23:02.547Z,95805.03
2022-11-05T10:25:33.532Z,95799.09
2022-11-05T10:28:00.685Z,95799.09
2022-11-05T10:30:27.437Z,95802.38
2022-11-05T10:32:57.745Z,95802.19
2022-11-05T10:35:26.877Z,95794.94
2022-11-05T10:37:53.826Z,95800.19
2022-11-05T10:40:31.083Z,95792.38
2022-11-05T10:43:00.753Z,95801.38
2022-11-05T10:45:37.282Z,95812.50
2022-11-05T10:48:20.359Z,95801.00
2022-11-05T10:50:47.959Z,95808.19
2022-11-05T10:53:18.442Z,95807.00
2022-11-05T10:55:48.305Z,95810.47
2022-11-05T10:58:17.705Z,95806.91
2022-11-05T11:01:07.229Z,95814.00
2022-11-05T11:03:49.315Z,95816.66
2022-11-05T11:06:24.916Z,95818.41
2022-11-05T11:08:54.003Z,95813.25
2022-11-05T11:11:31.361Z,95807.72
2022-11-05T11:13:57.996Z,95827.34
2022-11-05T11:16:27.629Z,95811.97
2022-11-05T11:19:00.943Z,95814.63
2022-11-05T11:21:30.308Z,95832.03
2022-11-05T11:24:06.986Z,95822.63
2022-11-05T11:26:38.351Z,95835.69
2022-11-05T11:29:04.996Z,95834.88
2022-11-05T11:31:37.217Z,95837.75
2022-11-05T11:34:07.320Z,95832.13
2022-11-05T11:36:44.656Z,95823.28
2022-11-05T11:39:17.898Z,95834.97
2022-11-05T11:41:46.917Z,95834.06
2022-11-05T11:44:18.822Z,95839.75
2022-11-05T11:46:54.987Z,95839.75
2022-11-05T11:49:33.221Z,95838.13
2022-11-05T11:52:04.577Z,95840.94
2022-11-05T11:54:33.554Z,95843.44
2022-11-05T11:57:00.264Z,95845.09
2022-11-05T12:00:02.065Z,95848.94
2022-11-05T12:02:41.869Z,95851.19
2022-11-05T12:05:39.341Z,95857.91
2022-11-05T12:08:24.273Z,95855.84
2022-11-05T12:11:01.762Z,95855.56
2022-11-05T12:13:43.585Z,95853.56
2022-11-05T12:16:26.622Z,95852.28
2022-11-05T12:18:59.354Z,95846.66
2022-11-05T12:21:53.594Z,95845.84
2022-11-05T12:24:53.955Z,95848.13
2022-11-05T12:27:44.643Z,95842.22
2022-11-05T12:30:16.303Z,95840.75
2022-11-05T12:33:10.502Z,95840.94
2022-11-05T12:36:04.996Z,95836.47
2022-11-05T12:38:56.343Z,95843.63
2022-11-05T12:41:50.468Z,95843.44
2022-11-05T12:44:46.225Z,95836.28
2022-11-05T12:47:24.742Z,95838.47
2022-11-05T12:50:02.199Z,95849.13
2022-11-05T12:53:00.947Z,95855.34
2022-11-05T12:55:37.025Z,95860.69
2022-11-05T12:58:17.824Z,95864.72
2022-11-05T13:00:51.416Z,95872.09
2022-11-05T13:03:43.499Z,95868.94
2022-11-05T13:06:17.163Z,95877.63
2022-11-05T13:08:59.662Z,95873.56
2022-11-05T13:11:33.981Z,95868.22
2022-11-05T13:14:15.745Z,95885.53
2022-11-05T13:16:53.994Z,95893.06
2022-11-05T13:19:25.554Z,95891.28
2022-11-05T13:22:00.632Z,95891.66
2022-11-05T13:25:02.765Z,95895.31
2022-11-05T13:27:42.234Z,95919.50
2022-11-05T13:30:26.284Z,95913.47
2022-11-05T13:33:04.857Z,95933.31
2022-11-05T13:35:42.259Z,95931.22
2022-11-05T13:38:33.404Z,95941.25
2022-11-05T13:41:23.503Z,95933.31
2022-11-05T13:44:17.385Z,95925.03
2022-11-05T13:47:17.099Z,95937.88
2022-11-05T13:49:51.418Z,95936.53
2022-11-05T13:53:02.918Z,95923.53
2022-11-05T13:55:52.646Z,95921.53
2022-11-05T13:58:46.783Z,95934.09
2022-11-05T14:01:41.637Z,95922.25
2022-11-05T14:04:20.104Z,95923.25
2022-11-05T14:06:47.144Z,95934.47
2022-11-05T14:09:20.304Z,95928.75
2022-11-05T14:11:54.783Z,95937.06
2022-11-05T14:14:25.521Z,95939.53
2022-11-05T14:17:07.565Z,95941.91
2022-11-05T14:19:49.846Z,95945.94
2022-11-05T14:22:49.122Z,95959.13
2022-11-05T14:25:18.518Z,95961.66
2022-11-05T14:27:47.709Z,95963.03
2022-11-05T14:30:46.389Z,95958.41
2022-11-05T14:33:25.317Z,95955.78
2022-11-05T14:36:20.550Z,95965.72
2022-11-05T14:38:50.197Z,95968.75
2022-11-05T14:41:17.628Z,95966.50
2022-11-05T14:43:50.385Z,95967.88
2022-11-05T14:46:17.266Z,95967.19
2022-11-05T14:49:36.298Z,95968.41
2022-11-05T14:52:11.178Z,95963.81
2022-11-05T14:54:43.104Z,95971.13
2022-11-05T14:57:32.351Z,95973.88
2022-11-05T15:00:01.022Z,95979.84
2022-11-05T15:02:38.942Z,95975.72
2022-11-05T15:05:36.386Z,95981.75
2022-11-05T15:08:29.355Z,95990.28
2022-11-05T15:11:06.298Z,95994.97
2022-11-05T15:13:42.843Z,95992.34
2022-11-05T15:16:09.635Z,96003.78
2022-11-05T15:18:45.617Z,95999.97
2022-11-05T15:21:16.746Z,96004.81
2022-11-05T15:23:46.223Z,96007.84
2022-11-05T15:26:46.424Z,96005.84
2022-11-05T15:29:22.403Z,96010.81
2022-11-05T15:31:50.342Z,95997.84
2022-11-05T15:34:30.076Z,95997.69
2022-11-05T15:37:16.978Z,95999.84
2022-11-05T15:39:46.276Z,95996.88
2022-11-05T15:42:15.943Z,95986.53
2022-11-05T15:44:45.468Z,95997.84
2022-11-05T15:47:24.223Z,95999.66
2022-11-05T15:49:54.383Z,95992.84
2022-11-05T15:52:31.781Z,95996.66
2022-11-05T15:55:13.663Z,95992.19
2022-11-05T15:57:51.312Z,95987.03
2022-11-05T16:00:25.525Z,96002.13
2022-11-05T16:02:56.903Z,96008.06
2022-11-05T16:05:27.025Z,95988.16
2022-11-05T16:07:54.036Z,96001.47
2022-11-05T16:10:24.549Z,95988.50
2022-11-05T16:12:51.311Z,95997.44
2022-11-05T16:15:21.585Z,95996.44
2022-11-05T16:17:57.547Z,96008.75
2022-11-05T16:20:32.317Z,96013.91
2022-11-05T16:23:06.423Z,96018.63
2022-11-05T16:25:39.126Z,96021.09
2022-11-05T16:28:20.750Z,96027.38
2022-11-05T16:30:59.145Z,96033.63
2022-11-05T16:33:33.361Z,96029.59
2022-11-05T16:36:00.166Z,96036.75
2022-11-05T16:38:27.781Z,96037.91
2022-11-05T16:40:54.484Z,96044.56
2022-11-05T16:43:24.113Z,96053.81
2022-11-05T16:45:55.046Z,96065.72
2022-11-05T16:48:22.152Z,96068.63
2022-11-05T16:50:48.866Z,96073.63
2022-11-05T16:53:15.625Z,96075.09
2022-11-05T16:55:44.065Z,96071.72
2022-11-05T16:58:31.266Z,96086.00
2022-11-05T17:01:08.243Z,96078.72
2022-11-05T17:03:35.002Z,96097.09
2022-11-05T17:06:01.796Z,96098.25
2022-11-05T17:08:28.782Z,96092.72
2022-11-05T17:10:55.577Z,96088.94
2022-11-05T17:13:22.303Z,96100.38
2022-11-05T17:15:50.583Z,96100.16
2022-11-05T17:18:19.082Z,96109.09
2022-11-05T17:20:53.518Z,96116.53
2022-11-05T17:23:22.925Z,96107.59
2022-11-05T17:25:52.676Z,96114.34
2022-11-05T17:28:20.634Z,96114.81
2022-11-05T17:30:54.345Z,96116.28
2022-11-05T17:33:22.991Z,96121.53
2022-11-05T17:35:50.626Z,96121.31
2022-11-05T17:38:17.503Z,96113.50
2022-11-05T17:40:44.595Z,96123.03
2022-11-05T17:43:11.719Z,96131.31
2022-11-05T17:45:46.594Z,96133.44
2022-11-05T17:48:14.167Z,96131.00
2022-11-05T17:50:46.718Z,96131.44
2022-11-05T17:53:14.910Z,96127.66
2022-11-05T17:55:43.360Z,96134.25
2022-11-05T17:58:11.346Z,96143.28
2022-11-05T18:00:39.116Z,96140.25
2022-11-05T18:03:06.113Z,96144.34
2022-11-05T18:05:34.468Z,96150.56
2022-11-05T18:08:01.546Z,96151.94
2022-11-05T18:10:28.315Z,96155.19
2022-11-05T18:12:55.039Z,96158.69
2022-11-05T18:15:21.784Z,96154.34
2022-11-05T18:17:48.430Z,96156.09
2022-11-05T18:20:19.252Z,96165.34
2022-11-05T18:22:48.636Z,96157.81
2022-11-05T18:25:15.663Z,96157.66
2022-11-05T18:27:42.791Z,96163.94
2022-11-05T18:30:11.113Z,96164.94
2022-11-05T18:32:38.886Z,96161.75
2022-11-05T18:35:05.977Z,96164.97
2022-11-05T18:37:32.706Z,96164.31
2022-11-05T18:39:59.383Z,96171.97
2022-11-05T18:42:26.219Z,96167.34
2022-11-05T18:44:52.903Z,96176.03
2022-11-05T18:47:19.714Z,96174.09
2022-11-05T18:49:46.384Z,96170.41
2022-11-05T18:52:13.302Z,96169.25
2022-11-05T18:54:40.115Z,96174.03
2022-11-05T18:57:06.825Z,96165.69
2022-11-05T18:59:39.073Z,96177.13
2022-11-05T19:02:08.482Z,96173.94
2022-11-05T19:04:36.545Z,96188.84
2022-11-05T19:07:05.495Z,96189.06
2022-11-05T19:09:34.504Z,96185.44
2022-11-05T19:12:02.003Z,96201.22
2022-11-05T19:14:30.205Z,96200.53
2022-11-05T19:16:58.308Z,96195.06
2022-11-05T19:19:25.392Z,96210.41
2022-11-05T19:21:52.428Z,96212.69
2022-11-05T19:24:19.442Z,96209.34
2022-11-05T19:26:46.860Z,96212.53
2022-11-05T19:29:13.867Z,96217.28
2022-11-05T19:31:40.554Z,96224.13
2022-11-05T19:34:07.423Z,96232.38
2022-11-05T19:36:34.589Z,96230.97
2022-11-05T19:39:07.426Z,96231.72
2022-11-05T19:41:34.263Z,96237.03
2022-11-05T19:44:01.987Z,96243.97
2022-11-05T19:46:30.482Z,96238.69
2022-11-05T19:48:57.678Z,96248.44
2022-11-05T19:51:26.513Z,96249.97
2022-11-05T19:53:55.240Z,96241.91
2022-11-05T19:56:24.245Z,96252.78
2022-11-05T19:58:53.128Z,96263.53
2022-11-05T20:01:21.914Z,96260.28
2022-11-05T20:03:48.820Z,96259.19
2022-11-05T20:06:21.169Z,96262.13
2022-11-05T20:09:15.203Z,96254.88
2022-11-05T20:11:40.132Z,96259.88
2022-11-05T20:14:08.240Z,96269.06
2022-11-05T20:16:40.233Z,96254.47
2022-11-05T20:19:10.077Z,96265.72
2022-11-05T20:21:37.516Z,96261.00
2022-11-05T20:24:05.739Z,96260.44
2022-11-05T20:26:32.644Z,96264.59
2022-11-05T20:28:59.424Z,96273.22
2022-11-05T20:31:26.243Z,96271.56
2022-11-05T20:33:53.586Z,96279.31
2022-11-05T20:36:22.416Z,96265.03
2022-11-05T20:38:50.477Z,96269.47
2022-11-05T20:41:17.664Z,96269.75
2022-11-05T20:43:46.853Z,96274.31
2022-11-05T20:46:16.623Z,96275.31
2022-11-05T20:48:44.444Z,96282.25
2022-11-05T20:51:13.810Z,96282.13
2022-11-05T20:53:41.226Z,96285.69
2022-11-05T20:56:10.923Z,96280.97
2022-11-05T20:58:38.141Z,96279.84
2022-11-05T21:01:05.895Z,96279.97
2022-11-05T21:03:32.683Z,96277.22
2022-11-05T21:06:04.209Z,96283.91
2022-11-05T21:08:30.903Z,96274.16
2022-11-05T21:10:57.713Z,96280.97
2022-11-05T21:13:25.138Z,96280.41
2022-11-05T21:15:54.555Z,96283.19
2022-11-05T21:18:23.396Z,96279.44
2022-11-05T21:20:50.382Z,96292.06
2022-11-05T21:23:17.277Z,96290.81
2022-11-05T21:25:44.581Z,96290.94
2022-11-05T21:28:13.050Z,96300.09
2022-11-05T21:30:45.908Z,96297.88
2022-11-05T21:33:17.192Z,96302.47
2022-11-05T21:35:46.757Z,96298.97
2022-11-05T21:38:16.397Z,96299.81
2022-11-05T21:40:44.041Z,96298.84
2022-11-05T21:43:11.081Z,96302.03
2022-11-05T21:45:39.305Z,96295.66
2022-11-05T21:48:06.951Z,96297.91
2022-11-05T21:50:52.151Z,96296.66
2022-11-05T21:53:37.233Z,96290.13
2022-11-05T21:56:27.123Z,96287.06
2022-11-05T21:59:11.988Z,96292.34
2022-11-05T22:01:38.770Z,96292.47
2022-11-05T22:04:05.536Z,96295.69
2022-11-05T22:06:33.848Z,96298.34
2022-11-05T22:09:00.635Z,96294.31
2022-11-05T22:11:27.353Z,96289.34
2022-11-05T22:13:54.075Z,96298.50
2022-11-05T22:16:20.744Z,96291.81
2022-11-05T22:18:47.404Z,96287.78
2022-11-05T22:21:18.546Z,96291.66
2022-11-05T22:23:45.545Z,96282.19
2022-11-05T22:26:12.352Z,96282.34
2022-11-05T22:28:39.063Z,96285.34
2022-11-05T22:31:14.913Z,96285.94
2022-11-05T22:33:42.163Z,96283.44
2022-11-05T22:36:09.950Z,96293.16
2022-11-05T22:38:36.858Z,96286.47
2022-11-05T22:41:11.189Z,96285.13
2022-11-05T22:43:38.584Z,96287.06
2022-11-05T22:46:07.241Z,96278.56
2022-11-05T22:48:35.861Z,96287.63
2022-11-05T22:51:07.304Z,96281.75
2022-11-05T22:53:35.606Z,96286.19
2022-11-05T22:56:07.584Z,96290.50
2022-11-05T22:58:34.738Z,96284.53
2022-11-05T23:01:01.963Z,96289.38
2022-11-05T23:03:30.156Z,96290.63
2022-11-05T23:06:00.106Z,96288.09
2022-11-05T23:08:45.622Z,96294.19
2022-11-05T23:11:38.459Z,96288.75
2022-11-05T23:14:07.392Z,96290.03
2022-11-05T23:16:52.542Z,96291.41
2022-11-05T23:19:38.141Z,96291.94
2022-11-05T23:22:28.396Z,96290.50
2022-11-05T23:24:55.033Z,96281.78
2022-11-05T23:27:21.783Z,96288.88
2022-11-05T23:29:48.464Z,96296.72
2022-11-05T23:32:28.234Z,96288.25
2022-11-05T23:34:57.061Z,96287.94
2022-11-05T23:37:44.793Z,96282.53
2022-11-05T23:40:15.627Z,96285.34
2022-11-05T23:43:01.976Z,96286.06
2022-11-05T23:45:55.678Z,96283.84
2022-11-05T23:48:31.184Z,96286.47
2022-11-05T23:51:00.544Z,96286.06
2022-11-05T23:53:29.021Z,96298.72
2022-11-05T23:56:04.881Z,96283.84
2022-11-05T23:58:32.101Z,96288.88
